createdAt,value
2023-04-23T00:00:29.419Z,41.70
2023-04-23T00:06:12.653Z,36.20
2023-04-23T00:12:59.174Z,33.90
2023-04-23T00:19:36.084Z,39.30
2023-04-23T00:26:11.140Z,35.90
2023-04-23T00:32:46.658Z,39.10
2023-04-23T00:38:41.900Z,37.70
2023-04-23T00:44:16.153Z,39.50
2023-04-23T00:50:02.290Z,40.10
2023-04-23T00:56:49.711Z,41.20
2023-04-23T01:03:16.688Z,43.20
2023-04-23T01:09:34.645Z,44.80
2023-04-23T01:15:00.324Z,45.00
2023-04-23T01:21:35.586Z,44.00
2023-04-23T01:28:48.370Z,40.80
2023-04-23T01:35:26.583Z,43.10
2023-04-23T01:41:38.849Z,41.60
2023-04-23T01:48:08.383Z,40.00
2023-04-23T01:54:32.046Z,44.30
2023-04-23T02:00:45.485Z,46.30
2023-04-23T02:07:44.710Z,47.00
2023-04-23T02:14:31.501Z,47.80
2023-04-23T02:21:27.507Z,44.50
2023-04-23T02:28:06.595Z,42.50
2023-04-23T02:33:42.955Z,42.30
2023-04-23T02:39:57.965Z,46.50
2023-04-23T02:45:21.150Z,51.90
2023-04-23T02:51:46.563Z,46.70
2023-04-23T02:57:34.839Z,44.00
2023-04-23T03:03:31.036Z,40.30
2023-04-23T03:10:33.999Z,42.10
2023-04-23T03:17:24.161Z,37.60
2023-04-23T03:23:07.467Z,41.00
2023-04-23T03:30:03.759Z,42.80
2023-04-23T03:35:53.458Z,42.60
2023-04-23T03:41:54.820Z,42.30
2023-04-23T03:48:42.126Z,42.00
2023-04-23T03:55:56.604Z,42.60
2023-04-23T04:02:32.001Z,43.20
2023-04-23T04:08:30.004Z,44.10
2023-04-23T04:15:14.014Z,45.10
2023-04-23T04:21:11.354Z,46.20
2023-04-23T04:27:44.059Z,45.40
2023-04-23T04:34:16.032Z,46.60
2023-04-23T04:39:36.584Z,47.60
2023-04-23T04:46:07.702Z,43.70
2023-04-23T04:51:55.293Z,39.40
2023-04-23T04:57:56.862Z,43.60
2023-04-23T05:04:33.832Z,42.30
2023-04-23T05:10:59.250Z,41.10
2023-04-23T05:17:44.495Z,39.60
2023-04-23T05:24:13.534Z,38.20
2023-04-23T05:30:10.830Z,34.40
2023-04-23T05:35:18.066Z,35.60
2023-04-23T05:40:20.463Z,32.10
2023-04-23T05:46:29.639Z,33.50
2023-04-23T05:53:42.838Z,30.30
2023-04-23T05:59:28.728Z,26.80
2023-04-23T06:05:02.913Z,24.80
2023-04-23T06:10:18.474Z,20.90
2023-04-23T06:16:39.678Z,22.30
2023-04-23T06:22:46.218Z,25.40
2023-04-23T06:33:48.902Z,20.40
2023-04-23T06:39:14.539Z,22.50
2023-04-23T06:45:57.750Z,19.50
2023-04-23T06:52:07.995Z,23.80
2023-04-23T06:57:22.229Z,22.70
2023-04-23T07:03:08.056Z,19.10
2023-04-23T07:08:57.054Z,20.00
2023-04-23T07:14:45.217Z,20.30
2023-04-23T07:20:16.286Z,18.20
2023-04-23T07:25:28.544Z,17.30
2023-04-23T07:31:31.641Z,16.80
2023-04-23T07:38:11.764Z,10.50
2023-04-23T07:44:52.004Z,12.10
2023-04-23T07:51:41.029Z,12.00
2023-04-23T07:58:01.993Z,13.00
2023-04-23T08:04:24.482Z,15.00
2023-04-23T08:10:08.029Z,13.10
2023-04-23T08:16:15.484Z,12.70
2023-04-23T08:22:30.891Z,12.10
2023-04-23T08:28:46.275Z,12.90
2023-04-23T08:41:45.262Z,14.30
2023-04-23T08:47:54.848Z,10.80
2023-04-23T08:54:34.452Z,8.80
2023-04-23T09:03:13.171Z,10.00
2023-04-23T09:09:52.770Z,8.10
2023-04-23T09:23:38.674Z,8.20
2023-04-23T09:30:17.901Z,7.30
2023-04-23T09:36:21.830Z,6.70
2023-04-23T09:41:50.604Z,6.70
2023-04-23T09:48:02.284Z,7.20
2023-04-23T09:54:34.050Z,8.70
2023-04-23T10:01:17.177Z,7.50
2023-04-23T10:13:31.023Z,8.90
2023-04-23T10:20:36.096Z,7.20
2023-04-23T10:26:17.027Z,6.80
2023-04-23T10:32:45.233Z,8.70
2023-04-23T10:38:07.673Z,7.80
2023-04-23T10:43:38.012Z,8.70
2023-04-23T10:49:51.129Z,8.80
2023-04-23T10:55:48.104Z,7.30
2023-04-23T11:02:18.241Z,8.40
2023-04-23T11:07:52.144Z,12.80
2023-04-23T11:14:13.701Z,7.00
2023-04-23T11:19:32.556Z,10.50
2023-04-23T11:25:12.266Z,8.30
2023-04-23T11:31:13.297Z,10.60
2023-04-23T11:37:05.281Z,5.90
2023-04-23T11:43:10.677Z,7.90
2023-04-23T11:49:22.989Z,7.90
2023-04-23T11:55:12.577Z,9.00
2023-04-23T12:01:01.399Z,8.50
2023-04-23T12:06:34.773Z,7.20
2023-04-23T12:12:38.801Z,6.30
2023-04-23T12:18:27.872Z,5.80
2023-04-23T12:23:40.183Z,7.60
2023-04-23T12:30:13.667Z,9.10
2023-04-23T12:35:57.725Z,4.90
2023-04-23T12:41:40.486Z,6.00
2023-04-23T12:47:04.276Z,5.00
2023-04-23T12:52:53.046Z,9.30
2023-04-23T12:58:46.977Z,5.50
2023-04-23T13:03:54.332Z,9.70
2023-04-23T13:09:18.487Z,4.40
2023-04-23T13:14:27.858Z,7.30
2023-04-23T13:19:42.069Z,9.50
2023-04-23T13:32:43.878Z,5.00
2023-04-23T13:39:23.546Z,7.60
2023-04-23T13:45:06.088Z,6.80
2023-04-23T13:50:17.674Z,7.80
2023-04-23T13:55:49.344Z,7.40
2023-04-23T14:01:52.865Z,6.20
2023-04-23T14:07:57.276Z,6.00
2023-04-23T14:13:41.756Z,10.60
2023-04-23T14:20:26.281Z,10.10
2023-04-23T14:27:12.470Z,6.30
2023-04-23T14:33:11.655Z,9.20
2023-04-23T14:45:30.123Z,5.50
2023-04-23T14:51:27.544Z,6.20
2023-04-23T15:22:31.153Z,9.50
2023-04-23T15:28:42.220Z,6.10
2023-04-23T15:35:30.683Z,9.20
2023-04-23T15:42:14.098Z,4.40
2023-04-23T15:48:58.861Z,8.90
2023-04-23T15:54:50.684Z,6.40
2023-04-23T16:01:11.594Z,5.00
2023-04-23T16:07:34.757Z,5.10
2023-04-23T16:14:19.652Z,7.90
2023-04-23T16:21:12.992Z,7.20
2023-04-23T16:27:57.770Z,12.50
2023-04-23T16:40:05.282Z,6.10
2023-04-23T16:45:41.288Z,7.70
2023-04-23T16:50:59.442Z,11.40
2023-04-23T16:56:12.455Z,11.40
2023-04-23T17:02:14.152Z,10.90
2023-04-23T17:08:37.209Z,10.80
2023-04-23T17:25:25.095Z,11.30
2023-04-23T17:31:24.081Z,14.40
2023-04-23T17:45:09.015Z,12.40
2023-04-23T18:18:36.612Z,14.40
2023-04-23T18:24:53.069Z,15.60
2023-04-23T18:31:54.554Z,18.50
2023-04-23T18:38:54.298Z,11.80
2023-04-23T18:45:44.758Z,16.20
2023-04-23T19:08:02.623Z,14.30
2023-04-23T19:15:08.290Z,17.30
2023-04-23T19:21:36.641Z,14.80
2023-04-23T19:34:46.006Z,25.80
2023-04-23T19:41:22.929Z,23.80
2023-04-23T19:48:26.629Z,29.60
2023-04-23T19:54:57.733Z,28.80
2023-04-23T20:01:35.222Z,28.30
2023-04-23T20:08:19.833Z,27.10
2023-04-23T20:15:09.050Z,26.70
2023-04-23T20:22:03.984Z,33.50
2023-04-23T20:28:56.620Z,32.00
2023-04-23T20:36:21.634Z,47.80
2023-04-23T20:49:13.250Z,44.10
2023-04-23T20:56:09.924Z,49.50
2023-04-23T21:03:12.912Z,58.00
2023-04-23T21:10:15.944Z,56.70
2023-04-23T21:17:13.048Z,53.60
2023-04-23T21:24:14.100Z,49.80
2023-04-23T21:38:48.583Z,50.40
2023-04-23T21:46:06.038Z,53.50
2023-04-23T21:53:02.546Z,55.00
2023-04-23T21:59:58.479Z,48.50
2023-04-23T22:06:50.538Z,52.30
2023-04-23T22:13:31.073Z,50.60
2023-04-23T22:19:55.335Z,48.20
2023-04-23T22:26:35.468Z,48.20
2023-04-23T22:33:39.791Z,47.00
2023-04-23T22:40:36.077Z,43.40
2023-04-23T22:47:40.261Z,48.70
2023-04-23T22:54:41.833Z,46.10
2023-04-23T23:01:33.927Z,42.90
2023-04-23T23:08:37.899Z,40.30
2023-04-23T23:16:00.785Z,39.30
2023-04-23T23:22:55.088Z,39.10
2023-04-23T23:29:54.102Z,35.80
2023-04-23T23:37:00.162Z,37.20
2023-04-23T23:44:06.595Z,37.80
2023-04-23T23:51:23.904Z,36.80
2023-04-23T23:58:54.652Z,36.40
